Time;durP1;ratioP1;P1;durP2;ratioP2;P2;SDS_P1;SDS_P2;PMS_P1;PMS_P2;Temp;Humidity;BMP_temperature;BMP_pressure;BME280_temperature;BME280_humidity;BME280_pressure;Samples;Min_cycle;Max_cycle;Signal;HPM_P1;HPM_P2
2023/09/15 00:01:39;;;;;;;;;;;13.10;99.90;;;;;;5154237;27;20388;-44
2023/09/15 00:04:06;;;;;;;;;;;13.10;99.90;;;;;;5154105;27;19908;-43
2023/09/15 00:06:35;;;;;;;;;;;13.00;99.90;;;;;;5153722;27;19911;-43
2023/09/15 00:09:06;;;;;;;;;;;13.00;99.90;;;;;;5154007;27;19915;-43
2023/09/15 00:11:39;;;;;;;;;;;13.00;99.90;;;;;;5154274;27;19913;-41
2023/09/15 00:14:05;;;;;;;;;;;13.00;99.90;;;;;;5154134;27;19907;-41
2023/09/15 00:16:31;;;;;;;;;;;12.90;99.90;;;;;;5153588;27;19911;-45
2023/09/15 00:18:56;;;;;;;;;;;13.00;99.90;;;;;;5154112;27;20268;-41
2023/09/15 00:21:22;;;;;;;;;;;12.90;99.90;;;;;;5154080;27;19907;-43
2023/09/15 00:23:47;;;;;;;;;;;12.90;99.90;;;;;;5154056;27;19911;-41
2023/09/15 00:26:13;;;;;;;;;;;12.90;99.90;;;;;;5138819;27;19919;-46
2023/09/15 00:28:39;;;;;;;;;;;12.80;99.90;;;;;;5133137;28;19923;-43
2023/09/15 00:31:05;;;;;;;;;;;12.80;99.90;;;;;;5132915;28;19907;-41
2023/09/15 00:33:30;;;;;;;;;;;12.80;99.90;;;;;;5133369;28;20067;-42
2023/09/15 00:35:56;;;;;;;;;;;12.70;99.90;;;;;;5133101;27;19919;-42
2023/09/15 00:38:21;;;;;;;;;;;12.70;99.90;;;;;;5133199;28;19914;-42
2023/09/15 00:40:47;;;;;;;;;;;12.70;99.90;;;;;;5133251;28;20406;-46
2023/09/15 00:43:12;;;;;;;;;;;12.70;99.90;;;;;;5133186;28;19908;-43
2023/09/15 00:45:38;;;;;;;;;;;12.70;99.90;;;;;;5132910;27;19938;-43
2023/09/15 00:48:04;;;;;;;;;;;12.70;99.90;;;;;;5133023;28;20278;-44
2023/09/15 00:50:31;;;;;;;;;;;12.70;99.90;;;;;;5133240;28;19911;-42
2023/09/15 00:52:59;;;;;;;;;;;12.80;99.90;;;;;;5133099;27;19964;-42
2023/09/15 00:55:25;;;;;;;;;;;12.80;99.90;;;;;;5141432;27;20005;-43
2023/09/15 00:57:52;;;;;;;;;;;12.80;99.90;;;;;;5156993;27;19911;-44
2023/09/15 01:00:20;;;;;;;;;;;12.80;99.90;;;;;;5157367;27;19915;-43
2023/09/15 01:02:47;;;;;;;;;;;12.80;99.90;;;;;;5144198;27;19912;-43
2023/09/15 01:05:20;;;;;;;;;;;12.70;99.90;;;;;;5136511;27;19911;-43
2023/09/15 01:07:47;;;;;;;;;;;12.80;99.90;;;;;;5136464;27;19946;-43
2023/09/15 01:10:14;;;;;;;;;;;12.70;99.90;;;;;;5136420;27;19922;-44
2023/09/15 01:12:39;;;;;;;;;;;12.70;99.90;;;;;;5136631;27;19924;-43
2023/09/15 01:15:05;;;;;;;;;;;12.70;99.90;;;;;;5137080;27;19933;-42
2023/09/15 01:17:34;;;;;;;;;;;12.70;99.90;;;;;;5136362;27;19911;-43
2023/09/15 01:20:28;;;;;;;;;;;12.70;99.90;;;;;;5136120;27;20400;-42
2023/09/15 01:23:00;;;;;;;;;;;12.60;99.90;;;;;;5117984;27;19908;-43
2023/09/15 01:25:31;;;;;;;;;;;12.60;99.90;;;;;;5136155;27;20011;-43
2023/09/15 01:27:57;;;;;;;;;;;12.60;99.90;;;;;;5136095;27;20103;-43
2023/09/15 01:30:23;;;;;;;;;;;12.60;99.90;;;;;;5136021;27;19983;-43
2023/09/15 01:32:50;;;;;;;;;;;12.60;99.90;;;;;;5135771;27;19919;-47
2023/09/15 01:35:15;;;;;;;;;;;12.50;99.90;;;;;;5135717;27;19934;-44
2023/09/15 01:37:41;;;;;;;;;;;12.50;99.90;;;;;;5135853;27;20370;-42
2023/09/15 01:40:07;;;;;;;;;;;12.50;99.90;;;;;;5135818;27;19908;-42
2023/09/15 01:42:32;;;;;;;;;;;12.40;99.90;;;;;;5135792;27;19915;-42
2023/09/15 01:44:58;;;;;;;;;;;12.40;99.90;;;;;;5135612;27;19964;-42
2023/09/15 01:47:24;;;;;;;;;;;12.40;99.90;;;;;;5135802;27;20002;-45
2023/09/15 01:49:50;;;;;;;;;;;12.40;99.90;;;;;;5135657;27;19922;-43
2023/09/15 01:52:17;;;;;;;;;;;12.40;99.90;;;;;;5135610;27;19998;-42
2023/09/15 01:54:42;;;;;;;;;;;12.40;99.90;;;;;;5148416;27;20361;-44
2023/09/15 01:57:08;;;;;;;;;;;12.30;99.90;;;;;;5156184;27;19911;-43
2023/09/15 01:59:34;;;;;;;;;;;12.30;99.90;;;;;;5156474;27;19958;-44
2023/09/15 02:01:59;;;;;;;;;;;12.30;99.90;;;;;;5156175;27;19950;-43
2023/09/15 02:04:25;;;;;;;;;;;12.20;99.90;;;;;;5155472;27;19969;-45
2023/09/15 02:06:51;;;;;;;;;;;12.20;99.90;;;;;;5156049;27;19907;-42
2023/09/15 02:09:17;;;;;;;;;;;12.20;99.90;;;;;;5156240;27;20276;-42
2023/09/15 02:11:42;;;;;;;;;;;12.20;99.90;;;;;;5155984;27;20414;-43
2023/09/15 02:14:08;;;;;;;;;;;12.10;99.90;;;;;;5155521;27;19962;-42
2023/09/15 02:16:33;;;;;;;;;;;12.10;99.90;;;;;;5155935;27;19911;-42
2023/09/15 02:19:00;;;;;;;;;;;12.10;99.90;;;;;;5155756;27;19907;-42
2023/09/15 02:21:26;;;;;;;;;;;12.10;99.90;;;;;;5155687;27;19907;-41
2023/09/15 02:23:51;;;;;;;;;;;12.10;99.90;;;;;;5155344;27;20475;-45
2023/09/15 02:26:17;;;;;;;;;;;12.10;99.90;;;;;;5155642;27;20327;-41
2023/09/15 02:28:42;;;;;;;;;;;12.00;99.90;;;;;;5155639;27;20018;-42
2023/09/15 02:31:08;;;;;;;;;;;12.00;99.90;;;;;;5155314;27;20426;-43
2023/09/15 02:33:35;;;;;;;;;;;12.00;99.90;;;;;;5155167;27;20278;-44
2023/09/15 02:36:00;;;;;;;;;;;12.00;99.90;;;;;;5155457;27;19907;-42
2023/09/15 02:38:26;;;;;;;;;;;12.00;99.90;;;;;;5155407;27;20259;-44
2023/09/15 02:40:51;;;;;;;;;;;12.00;99.90;;;;;;5155413;27;19907;-43
2023/09/15 02:43:17;;;;;;;;;;;12.00;99.90;;;;;;5154962;27;20350;-41
2023/09/15 02:45:42;;;;;;;;;;;11.90;99.90;;;;;;5155415;27;19919;-43
2023/09/15 02:48:08;;;;;;;;;;;11.90;99.90;;;;;;5155106;27;20388;-43
2023/09/15 02:50:33;;;;;;;;;;;11.90;99.90;;;;;;5155097;27;19914;-44
2023/09/15 02:52:59;;;;;;;;;;;11.90;99.90;;;;;;5144637;27;19911;-41
2023/09/15 02:55:25;;;;;;;;;;;11.90;99.90;;;;;;5134349;27;20353;-45
2023/09/15 02:57:54;;;;;;;;;;;11.90;99.90;;;;;;5134460;27;19908;-42
2023/09/15 03:00:20;;;;;;;;;;;11.80;99.90;;;;;;5134290;27;19946;-42
2023/09/15 03:02:46;;;;;;;;;;;11.80;99.90;;;;;;5134182;27;19996;-42
2023/09/15 03:05:12;;;;;;;;;;;11.80;99.90;;;;;;5134205;27;19914;-42
2023/09/15 03:07:39;;;;;;;;;;;11.80;99.90;;;;;;5134287;27;19908;-43
2023/09/15 03:10:08;;;;;;;;;;;11.70;99.90;;;;;;5132123;27;20335;-42
2023/09/15 03:12:34;;;;;;;;;;;11.70;99.90;;;;;;5127301;27;20313;-42
2023/09/15 03:15:04;;;;;;;;;;;11.70;99.90;;;;;;5130246;27;19914;-41
2023/09/15 03:17:29;;;;;;;;;;;11.60;99.90;;;;;;5133434;27;19907;-42
2023/09/15 03:19:55;;;;;;;;;;;11.60;99.90;;;;;;5133951;27;20384;-42
2023/09/15 03:22:20;;;;;;;;;;;11.60;99.90;;;;;;5133885;27;20103;-42
2023/09/15 03:24:46;;;;;;;;;;;11.60;99.90;;;;;;5134197;27;19907;-43
2023/09/15 03:27:12;;;;;;;;;;;11.50;99.90;;;;;;5134149;27;19908;-41
2023/09/15 03:29:37;;;;;;;;;;;11.50;99.90;;;;;;5133823;27;19984;-42
2023/09/15 03:32:03;;;;;;;;;;;11.50;99.90;;;;;;5133374;27;19926;-43
2023/09/15 03:34:28;;;;;;;;;;;11.50;99.90;;;;;;5133823;27;19951;-41
2023/09/15 03:36:54;;;;;;;;;;;11.50;99.90;;;;;;5133849;27;20358;-42
2023/09/15 03:39:19;;;;;;;;;;;11.40;99.90;;;;;;5133655;27;19915;-44
2023/09/15 03:41:44;;;;;;;;;;;11.40;99.90;;;;;;5120026;28;19929;-42
2023/09/15 03:44:10;;;;;;;;;;;11.40;99.90;;;;;;5118804;27;19912;-42
2023/09/15 03:46:35;;;;;;;;;;;11.40;99.90;;;;;;5133801;28;20358;-45
2023/09/15 03:49:03;;;;;;;;;;;11.40;99.90;;;;;;5133508;28;19922;-45
2023/09/15 03:51:29;;;;;;;;;;;11.40;99.90;;;;;;5133642;28;19907;-43
2023/09/15 03:53:54;;;;;;;;;;;11.40;99.90;;;;;;5148879;27;19915;-42
2023/09/15 03:56:20;;;;;;;;;;;11.40;99.90;;;;;;5154325;27;20343;-43
2023/09/15 03:58:46;;;;;;;;;;;11.40;99.90;;;;;;5154352;27;20354;-45
2023/09/15 04:01:13;;;;;;;;;;;11.40;99.90;;;;;;5154240;27;20019;-42
2023/09/15 04:03:38;;;;;;;;;;;11.30;99.90;;;;;;5153807;27;19910;-42
2023/09/15 04:06:04;;;;;;;;;;;11.30;99.90;;;;;;5154116;27;19918;-44
2023/09/15 04:08:30;;;;;;;;;;;11.30;99.90;;;;;;5133900;27;19915;-42
2023/09/15 04:10:56;;;;;;;;;;;11.30;99.90;;;;;;5133514;28;19912;-46
2023/09/15 04:13:22;;;;;;;;;;;11.30;99.90;;;;;;5133208;27;19908;-44
2023/09/15 04:15:47;;;;;;;;;;;11.30;99.90;;;;;;5133393;28;19915;-41
2023/09/15 04:18:13;;;;;;;;;;;11.30;99.90;;;;;;5133320;28;19907;-43
2023/09/15 04:20:38;;;;;;;;;;;11.20;99.90;;;;;;5122780;28;19961;-41
2023/09/15 04:23:04;;;;;;;;;;;11.20;99.90;;;;;;5129774;27;19934;-42
2023/09/15 04:25:29;;;;;;;;;;;11.20;99.90;;;;;;5125640;28;19907;-44
2023/09/15 04:27:55;;;;;;;;;;;11.20;99.90;;;;;;5128393;27;20011;-43
2023/09/15 04:30:20;;;;;;;;;;;11.10;99.90;;;;;;5135745;27;19912;-43
2023/09/15 04:32:46;;;;;;;;;;;11.10;99.90;;;;;;5117464;27;19920;-43
2023/09/15 04:35:12;;;;;;;;;;;11.10;99.90;;;;;;5116390;28;19908;-42
2023/09/15 04:37:38;;;;;;;;;;;11.10;99.90;;;;;;5116730;28;19912;-44
2023/09/15 04:40:06;;;;;;;;;;;11.10;99.90;;;;;;5116397;28;19953;-41
2023/09/15 04:42:31;;;;;;;;;;;11.00;99.90;;;;;;5153461;27;19998;-44
2023/09/15 04:44:57;;;;;;;;;;;11.00;99.90;;;;;;5151301;27;20007;-48
2023/09/15 04:47:36;;;;;;;;;;;11.00;99.90;;;;;;5136912;27;19930;-43
2023/09/15 04:50:01;;;;;;;;;;;11.00;99.90;;;;;;5136584;27;19916;-45
2023/09/15 04:52:27;;;;;;;;;;;11.00;99.90;;;;;;5154179;27;19918;-42
2023/09/15 04:54:53;;;;;;;;;;;11.00;99.90;;;;;;5157562;27;19988;-43
2023/09/15 04:57:19;;;;;;;;;;;11.00;99.90;;;;;;5157427;27;19911;-43
2023/09/15 04:59:46;;;;;;;;;;;11.00;99.90;;;;;;5156858;27;19907;-42
2023/09/15 05:02:11;;;;;;;;;;;11.00;99.90;;;;;;5157253;27;19907;-45
2023/09/15 05:04:37;;;;;;;;;;;11.00;99.90;;;;;;5157299;27;19959;-44
2023/09/15 05:07:03;;;;;;;;;;;11.00;99.90;;;;;;5157268;27;20369;-43
2023/09/15 05:09:29;;;;;;;;;;;11.00;99.90;;;;;;5125458;27;20060;-41
2023/09/15 05:11:55;;;;;;;;;;;11.00;99.90;;;;;;5131274;27;19912;-43
2023/09/15 05:14:20;;;;;;;;;;;10.90;99.90;;;;;;5115728;28;19915;-43
2023/09/15 05:16:45;;;;;;;;;;;11.00;99.90;;;;;;5115835;28;19911;-44
2023/09/15 05:19:11;;;;;;;;;;;11.00;99.90;;;;;;5115361;27;19930;-42
2023/09/15 05:21:36;;;;;;;;;;;10.90;99.90;;;;;;5132805;27;19911;-44
2023/09/15 05:24:02;;;;;;;;;;;10.90;99.90;;;;;;5120879;27;19908;-43
2023/09/15 05:26:28;;;;;;;;;;;10.90;99.90;;;;;;5119359;27;19908;-43
2023/09/15 05:28:53;;;;;;;;;;;11.00;99.90;;;;;;5136024;27;19922;-42
2023/09/15 05:31:23;;;;;;;;;;;11.00;99.90;;;;;;5148066;27;19911;-41
2023/09/15 05:33:49;;;;;;;;;;;11.00;99.90;;;;;;5156457;27;19917;-43
2023/09/15 05:36:14;;;;;;;;;;;11.00;99.90;;;;;;5156707;27;20001;-43
2023/09/15 05:38:40;;;;;;;;;;;11.00;99.90;;;;;;5155707;27;19907;-44
2023/09/15 05:41:05;;;;;;;;;;;11.00;99.90;;;;;;5141298;27;19944;-44
2023/09/15 05:43:31;;;;;;;;;;;11.00;99.90;;;;;;5145823;27;20285;-46
2023/09/15 05:45:56;;;;;;;;;;;11.00;99.90;;;;;;5141569;27;20660;-43
2023/09/15 05:48:25;;;;;;;;;;;11.00;99.90;;;;;;5143581;27;19919;-41
2023/09/15 05:50:50;;;;;;;;;;;11.00;99.90;;;;;;5140245;27;19912;-42
2023/09/15 05:53:16;;;;;;;;;;;11.00;99.90;;;;;;5141098;27;19911;-43
2023/09/15 05:55:41;;;;;;;;;;;11.00;99.90;;;;;;5146894;27;19914;-45
2023/09/15 05:58:07;;;;;;;;;;;11.10;99.90;;;;;;5129278;27;19918;-43
2023/09/15 06:00:32;;;;;;;;;;;11.10;99.90;;;;;;5135370;27;19941;-44
2023/09/15 06:02:58;;;;;;;;;;;11.10;99.90;;;;;;5138476;27;19915;-42
2023/09/15 06:05:25;;;;;;;;;;;11.10;99.90;;;;;;5138845;27;20366;-46
2023/09/15 06:07:53;;;;;;;;;;;11.20;99.90;;;;;;5149602;27;19967;-43
2023/09/15 06:10:19;;;;;;;;;;;11.20;99.90;;;;;;5141136;27;19915;-42
2023/09/15 06:12:47;;;;;;;;;;;11.20;99.90;;;;;;5147484;27;20376;-43
2023/09/15 06:15:13;;;;;;;;;;;11.20;99.90;;;;;;5146780;27;19914;-43
2023/09/15 06:17:38;;;;;;;;;;;11.30;99.90;;;;;;5144747;27;19919;-44
2023/09/15 06:20:04;;;;;;;;;;;11.20;99.90;;;;;;5142810;27;19913;-42
2023/09/15 06:22:30;;;;;;;;;;;11.30;99.90;;;;;;5149989;27;19915;-44
2023/09/15 06:24:55;;;;;;;;;;;11.30;99.90;;;;;;5147215;27;20274;-44
2023/09/15 06:27:21;;;;;;;;;;;11.40;99.90;;;;;;5138147;27;19919;-44
2023/09/15 06:29:46;;;;;;;;;;;11.40;99.90;;;;;;5144530;27;20373;-44
2023/09/15 06:32:12;;;;;;;;;;;11.50;99.90;;;;;;5135234;27;19965;-44
2023/09/15 06:34:38;;;;;;;;;;;11.40;99.90;;;;;;5130305;27;19919;-44
2023/09/15 06:37:03;;;;;;;;;;;11.50;99.90;;;;;;5140015;27;20417;-41
2023/09/15 06:39:29;;;;;;;;;;;11.50;99.90;;;;;;5131142;27;20323;-41
2023/09/15 06:41:55;;;;;;;;;;;11.60;99.90;;;;;;5135338;27;19966;-47
2023/09/15 06:44:21;;;;;;;;;;;11.60;99.90;;;;;;5138442;27;19950;-43
2023/09/15 06:46:46;;;;;;;;;;;11.70;99.90;;;;;;5154901;27;20338;-43
2023/09/15 06:49:12;;;;;;;;;;;11.70;99.90;;;;;;5140579;27;19927;-46
2023/09/15 06:51:38;;;;;;;;;;;11.80;99.90;;;;;;5118134;27;19998;-43
2023/09/15 06:54:04;;;;;;;;;;;11.90;99.90;;;;;;5120253;27;19999;-42
2023/09/15 06:56:29;;;;;;;;;;;11.90;99.90;;;;;;5124444;27;19994;-42
2023/09/15 06:58:55;;;;;;;;;;;12.00;99.90;;;;;;5126321;27;19915;-43
2023/09/15 07:01:20;;;;;;;;;;;12.10;99.90;;;;;;5135608;27;19915;-42
2023/09/15 07:03:46;;;;;;;;;;;12.10;99.90;;;;;;5134893;27;20002;-42
2023/09/15 07:06:13;;;;;;;;;;;12.20;99.90;;;;;;5135024;27;19908;-42
2023/09/15 07:08:39;;;;;;;;;;;12.30;99.90;;;;;;5134814;27;20350;-43
2023/09/15 07:11:04;;;;;;;;;;;12.40;99.90;;;;;;5153780;27;19918;-42
2023/09/15 07:13:30;;;;;;;;;;;12.40;99.90;;;;;;5155688;27;20374;-45
2023/09/15 07:15:55;;;;;;;;;;;12.50;99.90;;;;;;5155718;27;20450;-42
2023/09/15 07:18:21;;;;;;;;;;;12.60;99.90;;;;;;5116881;27;19918;-43
2023/09/15 07:20:46;;;;;;;;;;;12.70;99.90;;;;;;5128814;27;20380;-44
2023/09/15 07:23:12;;;;;;;;;;;12.80;99.90;;;;;;5130403;27;19918;-44
2023/09/15 07:25:37;;;;;;;;;;;12.90;99.90;;;;;;5123652;27;20362;-42
2023/09/15 07:28:03;;;;;;;;;;;13.00;99.90;;;;;;5132229;27;19907;-44
2023/09/15 07:30:29;;;;;;;;;;;13.10;99.90;;;;;;5129610;27;19961;-42
2023/09/15 07:32:54;;;;;;;;;;;13.10;99.90;;;;;;5132987;27;19926;-42
2023/09/15 07:35:22;;;;;;;;;;;13.20;99.90;;;;;;5133122;27;20322;-44
2023/09/15 07:37:48;;;;;;;;;;;13.30;99.90;;;;;;5115262;27;20393;-42
2023/09/15 07:40:13;;;;;;;;;;;13.40;99.90;;;;;;5133216;27;19964;-47
2023/09/15 07:42:39;;;;;;;;;;;13.50;99.90;;;;;;5133790;27;19953;-42
2023/09/15 07:45:04;;;;;;;;;;;13.60;99.90;;;;;;5133444;28;19915;-43
2023/09/15 07:47:30;;;;;;;;;;;13.70;99.90;;;;;;5132918;27;19907;-44
2023/09/15 07:49:57;;;;;;;;;;;13.80;99.90;;;;;;5146355;27;19919;-42
2023/09/15 07:52:24;;;;;;;;;;;13.80;99.90;;;;;;5149926;27;19979;-43
2023/09/15 07:54:50;;;;;;;;;;;13.90;99.90;;;;;;5142283;27;19911;-42
2023/09/15 07:57:16;;;;;;;;;;;14.00;99.90;;;;;;5141824;27;19912;-43
2023/09/15 07:59:41;;;;;;;;;;;14.10;99.90;;;;;;5145478;27;19915;-42
2023/09/15 08:02:07;;;;;;;;;;;14.20;99.90;;;;;;5133424;27;19964;-42
2023/09/15 08:04:32;;;;;;;;;;;14.30;99.90;;;;;;5147028;27;20369;-45
2023/09/15 08:06:58;;;;;;;;;;;14.30;99.90;;;;;;5147883;27;19921;-44
2023/09/15 08:09:23;;;;;;;;;;;14.40;99.90;;;;;;5155129;27;19915;-44
2023/09/15 08:11:49;;;;;;;;;;;14.50;99.90;;;;;;5117373;28;20301;-42
2023/09/15 08:14:14;;;;;;;;;;;14.60;99.90;;;;;;5117182;28;19914;-44
2023/09/15 08:16:40;;;;;;;;;;;14.60;99.90;;;;;;5131878;27;19911;-43
2023/09/15 08:19:05;;;;;;;;;;;14.80;99.90;;;;;;5158454;27;19907;-42
2023/09/15 08:21:31;;;;;;;;;;;14.80;99.90;;;;;;5158574;27;19911;-44
2023/09/15 08:23:57;;;;;;;;;;;14.90;99.90;;;;;;5158350;27;19908;-43
2023/09/15 08:26:22;;;;;;;;;;;15.00;99.90;;;;;;5153457;27;19952;-42
2023/09/15 08:28:48;;;;;;;;;;;15.10;99.90;;;;;;5137271;27;19991;-42
2023/09/15 08:31:13;;;;;;;;;;;15.20;99.90;;;;;;5137229;27;19995;-42
2023/09/15 08:33:39;;;;;;;;;;;15.30;99.90;;;;;;5137492;27;19914;-44
2023/09/15 08:36:04;;;;;;;;;;;15.40;99.90;;;;;;5137828;27;20379;-44
2023/09/15 08:38:31;;;;;;;;;;;15.50;99.90;;;;;;5157983;27;19911;-43
2023/09/15 08:41:16;;;;;;;;;;;15.60;99.90;;;;;;5158037;27;20346;-42
2023/09/15 08:43:42;;;;;;;;;;;15.70;99.90;;;;;;5157982;27;19907;-42
2023/09/15 08:46:08;;;;;;;;;;;15.80;99.90;;;;;;5157571;27;20394;-43
2023/09/15 08:48:38;;;;;;;;;;;15.80;99.90;;;;;;5156753;27;19915;-42
2023/09/15 08:51:04;;;;;;;;;;;16.00;99.90;;;;;;5157612;27;19930;-42
2023/09/15 08:53:30;;;;;;;;;;;16.10;99.90;;;;;;5158012;27;20342;-42
2023/09/15 08:55:55;;;;;;;;;;;16.20;99.90;;;;;;5157617;27;19907;-42
2023/09/15 08:58:21;;;;;;;;;;;16.30;99.90;;;;;;5139453;27;19912;-43
2023/09/15 09:00:46;;;;;;;;;;;16.40;99.90;;;;;;5136795;27;19911;-43
2023/09/15 09:03:15;;;;;;;;;;;16.50;99.90;;;;;;5136702;27;19914;-43
2023/09/15 09:05:45;;;;;;;;;;;16.60;99.90;;;;;;5136676;27;20310;-41
2023/09/15 09:08:12;;;;;;;;;;;16.70;99.90;;;;;;5148680;27;19955;-43
2023/09/15 09:10:37;;;;;;;;;;;16.80;99.90;;;;;;5138970;27;19915;-43
2023/09/15 09:13:03;;;;;;;;;;;16.90;99.90;;;;;;5136211;27;19907;-44
2023/09/15 09:15:31;;;;;;;;;;;17.00;99.90;;;;;;5135385;27;19908;-42
2023/09/15 09:17:57;;;;;;;;;;;17.10;99.90;;;;;;5136393;27;20418;-42
2023/09/15 09:20:26;;;;;;;;;;;17.20;99.90;;;;;;5136312;27;19907;-43
2023/09/15 09:22:54;;;;;;;;;;;17.20;99.90;;;;;;5136239;27;19942;-45
2023/09/15 09:25:29;;;;;;;;;;;17.30;99.90;;;;;;5143076;27;19993;-45
2023/09/15 09:27:55;;;;;;;;;;;17.50;99.90;;;;;;5132001;27;19907;-43
2023/09/15 09:30:26;;;;;;;;;;;17.60;99.90;;;;;;5135774;27;19930;-42
2023/09/15 09:32:51;;;;;;;;;;;17.60;99.90;;;;;;5131585;27;19923;-43
2023/09/15 09:35:17;;;;;;;;;;;17.80;99.90;;;;;;5118711;27;19915;-43
2023/09/15 09:37:42;;;;;;;;;;;17.80;99.90;;;;;;5136019;27;19907;-43
2023/09/15 09:40:08;;;;;;;;;;;17.90;99.90;;;;;;5135506;27;20095;-44
2023/09/15 09:42:34;;;;;;;;;;;18.00;99.90;;;;;;5135877;27;19911;-43
2023/09/15 09:45:00;;;;;;;;;;;18.10;99.90;;;;;;5134414;27;19930;-42
2023/09/15 09:47:26;;;;;;;;;;;18.20;99.90;;;;;;5135747;27;19917;-43
2023/09/15 09:49:54;;;;;;;;;;;18.30;99.90;;;;;;5135088;27;19915;-43
2023/09/15 09:52:21;;;;;;;;;;;18.40;99.90;;;;;;5134985;27;20443;-46
2023/09/15 09:54:50;;;;;;;;;;;18.50;99.90;;;;;;5134331;27;19918;-42
2023/09/15 09:57:16;;;;;;;;;;;18.60;99.90;;;;;;5136024;27;19918;-43
2023/09/15 09:59:42;;;;;;;;;;;18.60;99.90;;;;;;5146587;27;19907;-44
2023/09/15 10:02:08;;;;;;;;;;;18.70;99.90;;;;;;5135287;27;20002;-43
2023/09/15 10:04:33;;;;;;;;;;;18.80;99.90;;;;;;5146759;27;19915;-43
2023/09/15 10:06:59;;;;;;;;;;;18.90;99.90;;;;;;5143028;27;19998;-42
2023/09/15 10:09:25;;;;;;;;;;;19.00;99.90;;;;;;5145910;27;20326;-43
2023/09/15 10:11:52;;;;;;;;;;;19.00;99.90;;;;;;5140934;27;20342;-44
2023/09/15 10:14:18;;;;;;;;;;;19.20;99.90;;;;;;5140105;27;19915;-46
2023/09/15 10:16:44;;;;;;;;;;;19.20;99.90;;;;;;5140746;27;19915;-43
2023/09/15 10:19:10;;;;;;;;;;;19.30;99.90;;;;;;5145970;27;19915;-43
2023/09/15 10:21:36;;;;;;;;;;;19.40;99.90;;;;;;5147251;27;19907;-44
2023/09/15 10:24:08;;;;;;;;;;;19.50;99.90;;;;;;5134806;27;19983;-43
2023/09/15 10:26:34;;;;;;;;;;;19.50;99.90;;;;;;5134609;27;19911;-43
2023/09/15 10:29:03;;;;;;;;;;;19.60;99.90;;;;;;5134814;27;20402;-43
2023/09/15 10:31:30;;;;;;;;;;;19.70;99.90;;;;;;5134630;27;20334;-42
2023/09/15 10:33:58;;;;;;;;;;;19.70;99.90;;;;;;5140600;27;20155;-43
2023/09/15 10:36:24;;;;;;;;;;;19.80;99.90;;;;;;5146240;27;19911;-43
2023/09/15 10:38:49;;;;;;;;;;;19.90;99.90;;;;;;5151220;27;19918;-43
2023/09/15 10:41:35;;;;;;;;;;;19.90;99.90;;;;;;5152783;27;19907;-43
2023/09/15 10:44:02;;;;;;;;;;;19.90;99.90;;;;;;5133913;27;20151;-42
2023/09/15 10:46:41;;;;;;;;;;;20.00;99.90;;;;;;5134727;27;19943;-42
2023/09/15 10:49:20;;;;;;;;;;;20.10;99.90;;;;;;5134504;27;20002;-43
2023/09/15 10:51:54;;;;;;;;;;;20.20;99.90;;;;;;5137206;27;19919;-47
2023/09/15 10:54:20;;;;;;;;;;;20.30;99.90;;;;;;5146256;27;19990;-42
2023/09/15 10:56:46;;;;;;;;;;;20.40;99.90;;;;;;5146542;27;20362;-42
2023/09/15 10:59:12;;;;;;;;;;;20.50;99.90;;;;;;5144402;27;20362;-47
2023/09/15 11:01:43;;;;;;;;;;;20.60;99.90;;;;;;5142615;27;19963;-44
2023/09/15 11:04:10;;;;;;;;;;;20.70;99.90;;;;;;5151110;27;19907;-45
2023/09/15 11:06:36;;;;;;;;;;;20.70;99.90;;;;;;5152253;27;19907;-42
2023/09/15 11:09:04;;;;;;;;;;;20.70;99.90;;;;;;5143062;27;19972;-43
2023/09/15 11:11:31;;;;;;;;;;;20.80;99.90;;;;;;5124183;27;19912;-43
2023/09/15 11:13:57;;;;;;;;;;;20.90;99.90;;;;;;5136322;27;19934;-43
2023/09/15 11:16:24;;;;;;;;;;;21.00;99.90;;;;;;5127847;27;19911;-44
2023/09/15 11:18:50;;;;;;;;;;;21.10;99.90;;;;;;5118157;27;19912;-42
2023/09/15 11:21:15;;;;;;;;;;;21.10;99.90;;;;;;5128831;27;20746;-46
2023/09/15 11:23:46;;;;;;;;;;;21.20;99.90;;;;;;5122586;27;20388;-42
2023/09/15 11:26:11;;;;;;;;;;;21.20;99.90;;;;;;5137503;27;19911;-44
2023/09/15 11:28:37;;;;;;;;;;;21.30;99.90;;;;;;5121834;27;19912;-44
2023/09/15 11:31:07;;;;;;;;;;;21.40;99.90;;;;;;5133553;27;20278;-44
2023/09/15 11:33:32;;;;;;;;;;;21.40;99.90;;;;;;5133580;27;19915;-42
2023/09/15 11:35:59;;;;;;;;;;;21.50;99.90;;;;;;5130450;27;19914;-45
2023/09/15 11:38:25;;;;;;;;;;;21.50;99.90;;;;;;5120285;27;19912;-43
2023/09/15 11:40:51;;;;;;;;;;;21.60;99.90;;;;;;5124064;28;19918;-43
2023/09/15 11:43:20;;;;;;;;;;;21.60;99.90;;;;;;5113009;28;20297;-43
2023/09/15 11:45:46;;;;;;;;;;;21.70;99.90;;;;;;5121767;28;19991;-44
2023/09/15 11:48:12;;;;;;;;;;;21.80;99.90;;;;;;5131150;27;19920;-43
2023/09/15 11:50:37;;;;;;;;;;;21.80;99.90;;;;;;5121920;28;19912;-43
2023/09/15 11:53:03;;;;;;;;;;;21.80;99.90;;;;;;5121296;28;19998;-44
2023/09/15 11:55:29;;;;;;;;;;;21.80;99.90;;;;;;5120805;27;20390;-43
2023/09/15 11:57:55;;;;;;;;;;;21.90;99.90;;;;;;5142797;27;19949;-42
2023/09/15 12:00:22;;;;;;;;;;;22.00;99.90;;;;;;5130684;27;19919;-46
2023/09/15 12:02:48;;;;;;;;;;;22.10;99.90;;;;;;5135578;27;19920;-43
2023/09/15 12:05:15;;;;;;;;;;;22.10;99.90;;;;;;5133294;27;20011;-46
2023/09/15 12:07:42;;;;;;;;;;;22.30;99.90;;;;;;5144937;27;19907;-44
2023/09/15 12:10:10;;;;;;;;;;;22.30;99.90;;;;;;5138679;27;20294;-47
2023/09/15 12:12:36;;;;;;;;;;;22.40;99.90;;;;;;5142198;27;19993;-42
2023/09/15 12:15:04;;;;;;;;;;;22.40;99.90;;;;;;5129126;27;20014;-47
2023/09/15 12:17:34;;;;;;;;;;;22.40;99.90;;;;;;5129183;27;20408;-44
2023/09/15 12:20:00;;;;;;;;;;;22.40;99.90;;;;;;5137301;27;19915;-42
2023/09/15 12:22:38;;;;;;;;;;;22.30;99.90;;;;;;5135833;27;20011;-42
2023/09/15 12:25:04;;;;;;;;;;;22.40;99.90;;;;;;5142955;27;19915;-44
2023/09/15 12:27:30;;;;;;;;;;;22.50;99.90;;;;;;5108114;28;20394;-43
2023/09/15 12:29:56;;;;;;;;;;;22.50;99.90;;;;;;5130914;28;19919;-44
2023/09/15 12:32:28;;;;;;;;;;;22.60;99.90;;;;;;5118505;28;19924;-47
2023/09/15 12:34:54;;;;;;;;;;;22.70;99.90;;;;;;5122734;28;19911;-43
2023/09/15 12:37:19;;;;;;;;;;;22.80;99.90;;;;;;5128334;27;19926;-42
2023/09/15 12:39:45;;;;;;;;;;;22.90;99.90;;;;;;5112162;28;19915;-41
2023/09/15 12:42:10;;;;;;;;;;;22.90;99.90;;;;;;5121125;28;19918;-42
2023/09/15 12:44:36;;;;;;;;;;;23.10;99.90;;;;;;5116271;27;19919;-44
2023/09/15 12:47:03;;;;;;;;;;;23.10;99.90;;;;;;5134079;27;20362;-44
2023/09/15 12:49:29;;;;;;;;;;;23.20;99.90;;;;;;5134632;27;20551;-43
2023/09/15 12:51:54;;;;;;;;;;;23.30;99.90;;;;;;5136023;27;19907;-42
2023/09/15 12:54:22;;;;;;;;;;;23.40;99.90;;;;;;5131718;27;20010;-42
2023/09/15 12:56:52;;;;;;;;;;;23.60;99.90;;;;;;5121760;27;19986;-44
2023/09/15 12:59:21;;;;;;;;;;;23.80;99.90;;;;;;5156415;27;19975;-42
2023/09/15 13:01:47;;;;;;;;;;;23.90;99.90;;;;;;5157077;27;19914;-44
2023/09/15 13:04:12;;;;;;;;;;;23.90;99.90;;;;;;5156843;27;19907;-44
2023/09/15 13:06:38;;;;;;;;;;;24.00;99.90;;;;;;5142442;27;19907;-43
2023/09/15 13:09:04;;;;;;;;;;;24.20;99.90;;;;;;5126372;27;19970;-43
2023/09/15 13:11:31;;;;;;;;;;;24.50;99.90;;;;;;5118096;27;19914;-46
2023/09/15 13:13:56;;;;;;;;;;;24.80;99.90;;;;;;5127984;27;19912;-45
2023/09/15 13:16:22;;;;;;;;;;;25.00;99.90;;;;;;5134976;27;19919;-42
2023/09/15 13:18:47;;;;;;;;;;;25.20;99.90;;;;;;5135943;27;19918;-43
2023/09/15 13:21:13;;;;;;;;;;;25.50;99.90;;;;;;5134905;27;20281;-44
2023/09/15 13:23:39;;;;;;;;;;;25.70;99.90;;;;;;5134993;27;19911;-45
2023/09/15 13:26:05;;;;;;;;;;;25.70;97.80;;;;;;5135300;27;19995;-43
2023/09/15 13:28:33;;;;;;;;;;;25.90;99.90;;;;;;5135814;27;20014;-45
2023/09/15 13:31:00;;;;;;;;;;;26.10;98.70;;;;;;5135697;27;19912;-43
2023/09/15 13:33:26;;;;;;;;;;;26.40;98.90;;;;;;5135491;27;19919;-42
2023/09/15 13:35:51;;;;;;;;;;;26.50;99.20;;;;;;5135677;27;19908;-42
2023/09/15 13:38:17;;;;;;;;;;;26.70;97.70;;;;;;5135852;27;19918;-44
2023/09/15 13:40:42;;;;;;;;;;;26.80;96.80;;;;;;5135489;27;19907;-45
2023/09/15 13:43:08;;;;;;;;;;;26.80;97.70;;;;;;5135373;27;19907;-44
2023/09/15 13:45:34;;;;;;;;;;;26.80;97.30;;;;;;5135472;27;19911;-45
2023/09/15 13:47:59;;;;;;;;;;;26.90;96.40;;;;;;5135573;27;19911;-44
2023/09/15 13:50:25;;;;;;;;;;;27.10;94.70;;;;;;5135223;27;20404;-44
2023/09/15 13:52:50;;;;;;;;;;;27.30;96.00;;;;;;5135601;27;20011;-43
2023/09/15 13:55:16;;;;;;;;;;;27.50;95.60;;;;;;5135297;27;19961;-42
2023/09/15 13:57:41;;;;;;;;;;;27.60;95.90;;;;;;5135506;27;19911;-43
2023/09/15 14:00:09;;;;;;;;;;;27.50;94.00;;;;;;5134992;27;20290;-43
2023/09/15 14:02:35;;;;;;;;;;;27.40;95.90;;;;;;5135048;27;19907;-44
2023/09/15 14:05:04;;;;;;;;;;;27.50;95.50;;;;;;5135258;27;19930;-44
2023/09/15 14:07:30;;;;;;;;;;;27.80;96.50;;;;;;5132057;27;19916;-44
2023/09/15 14:09:56;;;;;;;;;;;28.00;93.70;;;;;;5117476;27;19920;-44
2023/09/15 14:12:21;;;;;;;;;;;28.10;93.10;;;;;;5121569;27;20040;-44